createdAt,value
2023-08-28T00:02:21.954Z,2.67
2023-08-28T00:04:48.626Z,2.67
2023-08-28T00:07:15.306Z,2.92
2023-08-28T00:09:42.002Z,2.95
2023-08-28T00:12:08.982Z,2.70
2023-08-28T00:14:35.760Z,2.85
2023-08-28T00:17:02.690Z,3.00
2023-08-28T00:19:29.355Z,2.67
2023-08-28T00:21:56.045Z,2.70
2023-08-28T00:24:22.727Z,2.85
2023-08-28T00:26:49.782Z,2.70
2023-08-28T00:29:16.467Z,3.05
2023-08-28T00:31:43.510Z,2.83
2023-08-28T00:34:10.292Z,2.72
2023-08-28T00:36:36.946Z,3.00
2023-08-28T00:39:03.867Z,2.78
2023-08-28T00:41:30.651Z,2.80
2023-08-28T00:43:57.638Z,2.38
2023-08-28T00:46:24.324Z,3.03
2023-08-28T00:48:51.017Z,2.90
2023-08-28T00:51:17.839Z,2.90
2023-08-28T00:53:44.541Z,2.75
2023-08-28T00:56:12.613Z,2.97
2023-08-28T00:58:39.912Z,2.72
2023-08-28T01:01:06.758Z,2.80
2023-08-28T01:03:33.463Z,2.85
2023-08-28T01:06:20.167Z,2.78
2023-08-28T01:09:14.925Z,2.83
2023-08-28T01:12:04.910Z,3.05
2023-08-28T01:14:31.872Z,2.80
2023-08-28T01:17:04.754Z,2.92
2023-08-28T01:19:38.665Z,3.00
2023-08-28T01:22:17.050Z,2.83
2023-08-28T01:25:07.209Z,3.13
2023-08-28T01:27:33.936Z,2.78
2023-08-28T01:30:12.147Z,2.63
2023-08-28T01:32:39.526Z,2.67
2023-08-28T01:35:14.454Z,3.63
2023-08-28T01:38:06.219Z,2.63
2023-08-28T01:40:41.681Z,2.70
2023-08-28T01:43:09.161Z,2.90
2023-08-28T01:45:38.718Z,2.80
2023-08-28T01:48:06.620Z,3.40
2023-08-28T01:50:33.582Z,2.58
2023-08-28T01:53:00.930Z,2.85
2023-08-28T01:56:09.345Z,3.00
2023-08-28T01:58:46.473Z,3.13
2023-08-28T02:01:13.392Z,2.60
2023-08-28T02:03:40.271Z,3.05
2023-08-28T02:06:07.384Z,3.00
2023-08-28T02:08:34.442Z,3.03
2023-08-28T02:11:01.152Z,3.15
2023-08-28T02:13:27.951Z,3.22
2023-08-28T02:15:54.644Z,2.80
2023-08-28T02:18:21.331Z,3.10
2023-08-28T02:20:49.893Z,2.72
2023-08-28T02:23:16.536Z,2.72
2023-08-28T02:25:47.236Z,3.25
2023-08-28T02:28:13.962Z,3.20
2023-08-28T02:30:40.689Z,3.05
2023-08-28T02:33:07.622Z,2.90
2023-08-28T02:35:34.739Z,2.65
2023-08-28T02:38:01.473Z,2.83
2023-08-28T02:40:28.092Z,2.88
2023-08-28T02:42:55.056Z,2.85
2023-08-28T02:45:21.850Z,2.70
2023-08-28T02:47:48.534Z,3.17
2023-08-28T02:50:15.437Z,3.00
2023-08-28T02:52:42.102Z,2.80
2023-08-28T02:55:09.218Z,3.05
2023-08-28T02:57:36.043Z,2.83
2023-08-28T03:00:02.784Z,2.75
2023-08-28T03:02:29.782Z,2.72
2023-08-28T03:04:56.441Z,3.13
2023-08-28T03:07:23.643Z,3.38
2023-08-28T03:09:50.368Z,3.08
2023-08-28T03:12:17.062Z,3.10
2023-08-28T03:14:43.999Z,3.35
2023-08-28T03:17:13.000Z,3.00
2023-08-28T03:19:41.249Z,2.90
2023-08-28T03:22:08.140Z,2.90
2023-08-28T03:24:38.245Z,3.22
2023-08-28T03:27:05.076Z,3.28
2023-08-28T03:29:32.001Z,3.20
2023-08-28T03:31:59.204Z,3.53
2023-08-28T03:34:25.937Z,3.08
2023-08-28T03:36:52.849Z,2.95
2023-08-28T03:39:19.509Z,3.22
2023-08-28T03:41:46.170Z,3.20
2023-08-28T03:44:13.352Z,3.00
2023-08-28T03:46:40.059Z,3.15
2023-08-28T03:49:06.765Z,2.88
2023-08-28T03:51:33.550Z,2.85
2023-08-28T03:54:02.251Z,3.30
2023-08-28T03:56:30.833Z,3.03
2023-08-28T03:58:57.512Z,3.20
2023-08-28T04:01:24.256Z,3.22
2023-08-28T04:03:50.999Z,2.97
2023-08-28T04:06:17.723Z,3.13
2023-08-28T04:08:44.401Z,3.22
2023-08-28T04:11:11.407Z,3.28
2023-08-28T04:13:38.042Z,3.65
2023-08-28T04:16:07.052Z,3.70
2023-08-28T04:18:34.117Z,3.28
2023-08-28T04:21:04.541Z,3.47
2023-08-28T04:23:31.171Z,3.40
2023-08-28T04:25:58.107Z,3.38
2023-08-28T04:28:24.786Z,3.40
2023-08-28T04:30:51.527Z,3.30
2023-08-28T04:33:18.225Z,3.30
2023-08-28T04:35:44.909Z,4.10
2023-08-28T04:38:11.636Z,3.30
2023-08-28T04:40:38.617Z,3.35
2023-08-28T04:43:05.639Z,3.78
2023-08-28T04:45:32.694Z,4.07
2023-08-28T04:47:59.475Z,8.52
2023-08-28T04:50:26.196Z,11.35
2023-08-28T04:52:53.370Z,11.50
2023-08-28T04:55:20.082Z,9.65
2023-08-28T04:57:46.711Z,5.95
2023-08-28T05:00:14.020Z,3.63
2023-08-28T05:02:40.821Z,4.07
2023-08-28T05:05:08.044Z,5.30
2023-08-28T05:07:34.795Z,3.90
2023-08-28T05:10:01.553Z,3.05
2023-08-28T05:12:28.225Z,2.92
2023-08-28T05:14:54.947Z,2.78
2023-08-28T05:17:21.956Z,2.90
2023-08-28T05:19:48.612Z,2.55
2023-08-28T05:22:15.296Z,2.72
2023-08-28T05:24:41.997Z,2.50
2023-08-28T05:27:09.559Z,2.58
2023-08-28T05:29:36.300Z,2.60
2023-08-28T05:32:03.459Z,2.55
2023-08-28T05:34:30.479Z,2.78
2023-08-28T05:36:57.117Z,2.88
2023-08-28T05:39:24.090Z,2.60
2023-08-28T05:41:50.766Z,2.70
2023-08-28T05:44:17.514Z,3.10
2023-08-28T05:46:44.503Z,3.10
2023-08-28T05:49:11.240Z,2.95
2023-08-28T05:51:38.106Z,3.03
2023-08-28T05:54:05.070Z,3.30
2023-08-28T05:56:31.791Z,3.08
2023-08-28T05:58:58.750Z,3.72
2023-08-28T06:01:25.430Z,3.22
2023-08-28T06:03:57.314Z,2.80
2023-08-28T06:06:24.884Z,2.97
2023-08-28T06:08:51.623Z,3.38
2023-08-28T06:11:18.318Z,3.03
2023-08-28T06:13:45.302Z,2.90
2023-08-28T06:16:12.138Z,3.55
2023-08-28T06:18:38.912Z,3.20
2023-08-28T06:21:05.598Z,3.30
2023-08-28T06:23:32.343Z,3.45
2023-08-28T06:25:59.032Z,3.25
2023-08-28T06:28:26.039Z,3.03
2023-08-28T06:30:52.855Z,3.00
2023-08-28T06:33:19.552Z,3.03
2023-08-28T06:35:46.240Z,3.28
2023-08-28T06:38:13.582Z,3.17
2023-08-28T06:40:40.621Z,3.38
2023-08-28T06:43:07.335Z,3.05
2023-08-28T06:45:34.233Z,3.10
2023-08-28T06:48:01.856Z,3.40
2023-08-28T06:50:28.613Z,2.83
2023-08-28T06:52:55.683Z,3.20
2023-08-28T06:55:22.413Z,3.15
2023-08-28T06:57:50.288Z,2.83
2023-08-28T07:00:17.682Z,3.00
2023-08-28T07:02:44.525Z,3.47
2023-08-28T07:05:11.373Z,2.90
2023-08-28T07:07:39.051Z,3.38
2023-08-28T07:10:06.643Z,3.17
2023-08-28T07:12:34.508Z,2.70
2023-08-28T07:15:27.339Z,3.08
2023-08-28T07:17:54.112Z,2.78
2023-08-28T07:20:21.781Z,2.53
2023-08-28T07:22:54.786Z,2.92
2023-08-28T07:25:23.777Z,3.22
2023-08-28T07:27:51.131Z,3.38
2023-08-28T07:30:18.322Z,2.95
2023-08-28T07:32:45.138Z,2.85
2023-08-28T07:35:12.219Z,2.95
2023-08-28T07:37:38.900Z,2.80
2023-08-28T07:40:07.281Z,2.88
2023-08-28T07:42:34.579Z,3.40
2023-08-28T07:45:01.249Z,2.83
2023-08-28T07:47:28.212Z,2.88
2023-08-28T07:49:55.287Z,2.92
2023-08-28T07:52:21.984Z,2.75
2023-08-28T07:54:48.683Z,3.10
2023-08-28T07:57:15.541Z,2.70
2023-08-28T07:59:42.302Z,2.70
2023-08-28T08:02:09.302Z,2.85
2023-08-28T08:04:39.167Z,2.75
2023-08-28T08:07:05.905Z,2.70
2023-08-28T08:09:32.631Z,3.22
2023-08-28T08:11:59.362Z,3.33
2023-08-28T08:14:26.379Z,2.45
2023-08-28T08:16:53.146Z,2.50
2023-08-28T08:19:19.838Z,2.40
2023-08-28T08:21:46.599Z,2.40
2023-08-28T08:24:13.341Z,2.38
2023-08-28T08:26:40.367Z,2.42
2023-08-28T08:29:07.020Z,2.50
2023-08-28T08:31:33.810Z,2.72
2023-08-28T08:34:00.840Z,2.40
2023-08-28T08:36:27.537Z,2.83
2023-08-28T08:38:54.255Z,2.55
2023-08-28T08:41:21.366Z,2.78
2023-08-28T08:43:48.048Z,2.40
2023-08-28T08:46:14.927Z,2.53
2023-08-28T08:48:41.947Z,2.67
2023-08-28T08:51:09.281Z,2.75
2023-08-28T08:53:42.930Z,2.95
2023-08-28T08:56:10.910Z,2.65
2023-08-28T08:58:37.575Z,2.40
2023-08-28T09:01:05.856Z,2.58
2023-08-28T09:03:33.128Z,2.80
2023-08-28T09:06:00.620Z,3.00
2023-08-28T09:08:27.691Z,2.83
2023-08-28T09:10:54.417Z,2.58
2023-08-28T09:13:21.188Z,2.58
2023-08-28T09:15:47.899Z,2.47
2023-08-28T09:18:14.700Z,2.60
2023-08-28T09:20:41.773Z,2.40
2023-08-28T09:23:08.632Z,2.25
2023-08-28T09:25:35.477Z,2.30
2023-08-28T09:28:02.252Z,2.33
2023-08-28T09:30:39.095Z,2.35
2023-08-28T09:33:07.775Z,2.60
2023-08-28T09:35:39.295Z,2.15
2023-08-28T09:38:06.122Z,2.40
2023-08-28T09:40:33.954Z,2.40
2023-08-28T09:43:12.632Z,2.20
2023-08-28T09:45:39.611Z,2.33
2023-08-28T09:48:07.397Z,2.10
2023-08-28T09:50:35.314Z,2.15
2023-08-28T09:53:15.222Z,2.75
2023-08-28T09:55:50.610Z,2.22
2023-08-28T09:58:17.532Z,2.42
2023-08-28T10:00:52.311Z,2.33
2023-08-28T10:03:20.136Z,2.20
2023-08-28T10:05:47.480Z,2.50
2023-08-28T10:08:15.307Z,2.42
2023-08-28T10:10:43.293Z,2.20
2023-08-28T10:13:18.347Z,2.75
2023-08-28T10:16:05.276Z,2.60
2023-08-28T10:18:45.801Z,2.40
2023-08-28T10:21:12.885Z,2.28
2023-08-28T10:23:39.564Z,2.95
2023-08-28T10:26:06.273Z,2.42
2023-08-28T10:28:33.116Z,2.50
2023-08-28T10:31:00.305Z,2.22
2023-08-28T10:33:27.127Z,2.60
2023-08-28T10:35:55.218Z,2.95
2023-08-28T10:38:22.249Z,2.55
2023-08-28T10:40:53.453Z,2.38
2023-08-28T10:43:22.905Z,2.35
2023-08-28T10:45:53.367Z,2.70
2023-08-28T10:48:21.453Z,2.78
2023-08-28T10:50:48.271Z,2.70
2023-08-28T10:53:15.547Z,2.47
2023-08-28T10:55:55.541Z,2.67
2023-08-28T10:58:22.768Z,3.22
2023-08-28T11:00:49.686Z,3.13
2023-08-28T11:03:16.904Z,2.83
2023-08-28T11:05:43.838Z,2.75
2023-08-28T11:08:13.040Z,2.95
2023-08-28T11:10:42.397Z,3.00
2023-08-28T11:13:12.618Z,3.28
2023-08-28T11:15:43.259Z,3.60
2023-08-28T11:18:27.446Z,3.38
2023-08-28T11:21:01.757Z,3.60
2023-08-28T11:23:37.440Z,3.30
2023-08-28T11:26:08.868Z,3.38
2023-08-28T11:28:52.144Z,2.55
2023-08-28T11:31:21.030Z,2.90
2023-08-28T11:33:50.808Z,2.50
2023-08-28T11:36:20.573Z,2.60
2023-08-28T11:38:47.970Z,2.45
2023-08-28T11:41:14.815Z,3.42
2023-08-28T11:43:43.581Z,3.17
2023-08-28T11:46:11.942Z,3.03
2023-08-28T11:48:41.430Z,2.85
2023-08-28T11:51:09.395Z,2.72
2023-08-28T11:53:44.072Z,2.60
2023-08-28T11:56:13.189Z,2.70
2023-08-28T11:58:41.210Z,2.78
2023-08-28T12:01:15.064Z,2.50
2023-08-28T12:03:43.381Z,2.90
2023-08-28T12:06:13.567Z,2.67
2023-08-28T12:08:42.251Z,2.95
2023-08-28T12:11:10.385Z,2.70
2023-08-28T12:13:37.760Z,2.90
2023-08-28T12:16:12.657Z,2.90
2023-08-28T12:18:50.723Z,2.75
2023-08-28T12:21:18.408Z,2.58
2023-08-28T12:23:57.106Z,2.83
2023-08-28T12:26:27.803Z,2.55
2023-08-28T12:28:54.715Z,2.60
2023-08-28T12:31:29.141Z,2.75
2023-08-28T12:33:56.246Z,2.50
2023-08-28T12:36:34.855Z,2.78
2023-08-28T12:39:01.600Z,2.38
2023-08-28T12:41:28.709Z,2.80
2023-08-28T12:43:55.395Z,2.22
2023-08-28T12:46:22.626Z,2.40
2023-08-28T12:48:49.352Z,2.10
2023-08-28T12:51:16.071Z,2.60
2023-08-28T12:53:42.811Z,2.30
2023-08-28T12:56:09.520Z,2.45
2023-08-28T12:58:37.004Z,2.80
2023-08-28T13:01:05.626Z,2.45
2023-08-28T13:03:32.522Z,2.40
2023-08-28T13:05:59.212Z,2.10
2023-08-28T13:08:25.958Z,2.13
2023-08-28T13:10:52.656Z,1.77
2023-08-28T13:13:19.885Z,1.80
2023-08-28T13:15:59.104Z,2.00
2023-08-28T13:18:26.098Z,2.30
2023-08-28T13:20:52.788Z,2.40
2023-08-28T13:23:19.598Z,1.95
2023-08-28T13:25:46.457Z,1.90
2023-08-28T13:28:14.326Z,2.03
2023-08-28T13:30:41.038Z,2.30
2023-08-28T13:33:08.029Z,2.30
2023-08-28T13:35:35.304Z,2.00
2023-08-28T13:38:02.023Z,2.10
2023-08-28T13:40:29.296Z,2.03
2023-08-28T13:42:56.090Z,2.28
2023-08-28T13:45:22.880Z,2.55
2023-08-28T13:47:49.858Z,2.25
2023-08-28T13:50:16.882Z,2.78
2023-08-28T13:52:46.415Z,2.40
2023-08-28T13:55:13.795Z,2.45
2023-08-28T13:57:40.684Z,2.15
2023-08-28T14:00:13.209Z,2.53
2023-08-28T14:02:41.851Z,2.20
2023-08-28T14:05:13.592Z,2.30
2023-08-28T14:07:42.444Z,2.40
2023-08-28T14:10:09.964Z,2.20
2023-08-28T14:12:37.032Z,2.20
2023-08-28T14:15:04.557Z,2.50
2023-08-28T14:17:31.729Z,2.53
2023-08-28T14:19:58.964Z,2.90
2023-08-28T14:22:26.330Z,2.80
2023-08-28T14:24:53.268Z,2.70
2023-08-28T14:27:20.087Z,3.08
2023-08-28T14:29:46.816Z,2.83
2023-08-28T14:32:15.012Z,3.00
2023-08-28T14:34:42.082Z,2.80
2023-08-28T14:37:09.116Z,2.85
2023-08-28T14:39:35.833Z,3.05
2023-08-28T14:42:02.473Z,2.53
2023-08-28T14:44:29.253Z,2.30
2023-08-28T14:46:56.067Z,2.38
2023-08-28T14:49:22.820Z,2.35
2023-08-28T14:51:49.508Z,2.17
2023-08-28T14:54:16.389Z,2.33
2023-08-28T14:56:43.127Z,2.15
2023-08-28T14:59:09.842Z,2.00
2023-08-28T15:01:36.986Z,2.22
2023-08-28T15:04:04.093Z,2.22
2023-08-28T15:06:30.825Z,1.90
2023-08-28T15:08:58.006Z,2.50
2023-08-28T15:11:24.708Z,2.22
2023-08-28T15:13:52.292Z,2.30
2023-08-28T15:16:19.363Z,3.17
2023-08-28T15:18:46.929Z,2.75
2023-08-28T15:21:13.719Z,2.80
2023-08-28T15:23:40.460Z,3.17
2023-08-28T15:26:07.322Z,3.00
2023-08-28T15:28:34.593Z,3.28
2023-08-28T15:31:01.919Z,3.22
2023-08-28T15:33:28.892Z,3.35
2023-08-28T15:35:55.706Z,3.70
2023-08-28T15:38:22.420Z,4.07
2023-08-28T15:40:49.133Z,3.63
2023-08-28T15:43:17.764Z,4.68
2023-08-28T15:45:52.396Z,4.95
2023-08-28T15:48:19.688Z,4.93
2023-08-28T15:50:47.081Z,4.88
2023-08-28T15:53:13.825Z,5.00
2023-08-28T15:55:40.879Z,5.10
2023-08-28T15:58:07.591Z,5.70
2023-08-28T16:00:34.352Z,5.05
2023-08-28T16:03:01.384Z,5.28
2023-08-28T16:05:29.280Z,5.68
2023-08-28T16:07:56.058Z,5.45
2023-08-28T16:10:23.158Z,5.32
2023-08-28T16:12:50.150Z,5.13
2023-08-28T16:15:16.857Z,5.75
2023-08-28T16:17:43.747Z,5.25
2023-08-28T16:20:11.012Z,5.10
2023-08-28T16:22:38.000Z,5.22
2023-08-28T16:25:05.330Z,5.15
2023-08-28T16:27:34.771Z,5.07
2023-08-28T16:30:02.087Z,4.75
2023-08-28T16:32:30.662Z,4.57
2023-08-28T16:34:58.310Z,5.30
2023-08-28T16:37:25.302Z,4.70
2023-08-28T16:39:52.245Z,5.25
2023-08-28T16:42:19.250Z,5.15
2023-08-28T16:44:46.297Z,4.55
2023-08-28T16:47:13.016Z,4.82
2023-08-28T16:49:39.810Z,5.25
2023-08-28T16:52:06.796Z,5.18
2023-08-28T16:54:33.508Z,5.40
2023-08-28T16:57:00.251Z,4.75
2023-08-28T16:59:27.004Z,4.70
2023-08-28T17:01:54.049Z,5.07
2023-08-28T17:04:21.112Z,5.80
2023-08-28T17:06:58.823Z,4.95
2023-08-28T17:09:29.095Z,4.95
2023-08-28T17:11:55.839Z,4.88
2023-08-28T17:14:22.665Z,5.00
2023-08-28T17:16:49.410Z,4.55
2023-08-28T17:19:16.489Z,4.75
2023-08-28T17:21:43.270Z,5.00
2023-08-28T17:24:10.015Z,5.00
2023-08-28T17:26:36.768Z,4.97
2023-08-28T17:29:03.796Z,5.18
2023-08-28T17:31:30.947Z,5.50
2023-08-28T17:33:57.755Z,5.18
2023-08-28T17:36:24.702Z,5.75
2023-08-28T17:39:10.772Z,5.82
2023-08-28T17:41:37.515Z,5.20
2023-08-28T17:44:04.532Z,5.15
2023-08-28T17:46:31.403Z,5.60
2023-08-28T17:48:58.156Z,5.22
2023-08-28T17:51:24.815Z,5.57
2023-08-28T17:53:51.533Z,5.57
2023-08-28T17:56:18.262Z,5.78
2023-08-28T17:58:45.015Z,5.45
2023-08-28T18:01:12.100Z,5.68
2023-08-28T18:03:39.997Z,4.95
2023-08-28T18:06:07.171Z,5.20
2023-08-28T18:08:33.913Z,5.47
2023-08-28T18:11:00.737Z,5.75
2023-08-28T18:13:28.399Z,5.72
2023-08-28T18:15:55.361Z,5.63
2023-08-28T18:18:22.202Z,5.57
2023-08-28T18:20:50.204Z,5.30
2023-08-28T18:23:17.168Z,5.97
2023-08-28T18:25:44.027Z,5.82
2023-08-28T18:28:13.605Z,6.25
2023-08-28T18:30:40.685Z,6.25
2023-08-28T18:33:07.665Z,5.60
2023-08-28T18:35:34.782Z,6.15
2023-08-28T18:38:01.779Z,5.97
2023-08-28T18:40:29.086Z,5.63
2023-08-28T18:42:55.905Z,5.53
2023-08-28T18:45:23.618Z,5.70
2023-08-28T18:47:51.926Z,5.95
2023-08-28T18:50:18.995Z,6.65
2023-08-28T18:52:45.784Z,5.47
2023-08-28T18:55:30.325Z,5.78
2023-08-28T18:57:59.635Z,5.40
2023-08-28T19:00:28.915Z,5.60
2023-08-28T19:02:56.800Z,6.00
2023-08-28T19:05:24.804Z,6.22
2023-08-28T19:07:51.926Z,6.30
2023-08-28T19:10:19.003Z,6.35
2023-08-28T19:12:45.964Z,6.13
2023-08-28T19:15:13.008Z,6.65
2023-08-28T19:17:40.178Z,6.40
2023-08-28T19:20:07.325Z,6.00
2023-08-28T19:22:34.665Z,6.15
2023-08-28T19:25:04.448Z,5.95
2023-08-28T19:27:31.631Z,6.22
2023-08-28T19:29:58.304Z,6.88
2023-08-28T19:32:37.965Z,6.65
2023-08-28T19:35:19.185Z,6.55
2023-08-28T19:37:47.585Z,6.25
2023-08-28T19:40:14.495Z,6.53
2023-08-28T19:42:42.256Z,6.20
2023-08-28T19:45:09.795Z,6.00
2023-08-28T19:47:37.337Z,5.75
2023-08-28T19:50:04.950Z,6.28
2023-08-28T19:52:31.686Z,5.70
2023-08-28T19:54:58.400Z,5.47
2023-08-28T19:57:28.568Z,5.75
2023-08-28T19:59:55.865Z,5.40
2023-08-28T20:02:22.922Z,5.55
2023-08-28T20:04:49.758Z,6.18
2023-08-28T20:07:16.668Z,6.32
2023-08-28T20:09:43.458Z,5.60
2023-08-28T20:12:11.073Z,6.25
2023-08-28T20:14:41.954Z,6.00
2023-08-28T20:17:09.586Z,6.10
2023-08-28T20:19:36.781Z,6.57
2023-08-28T20:22:05.168Z,6.32
2023-08-28T20:24:35.022Z,6.85
2023-08-28T20:27:01.951Z,7.18
2023-08-28T20:29:29.254Z,7.20
2023-08-28T20:31:55.983Z,7.40
2023-08-28T20:34:22.775Z,6.97
2023-08-28T20:36:49.508Z,6.50
2023-08-28T20:39:16.332Z,6.88
2023-08-28T20:41:43.421Z,7.07
2023-08-28T20:44:10.393Z,7.40
2023-08-28T20:46:40.464Z,7.03
2023-08-28T20:49:07.228Z,7.57
2023-08-28T20:51:34.351Z,7.22
2023-08-28T20:54:01.478Z,7.25
2023-08-28T20:56:28.177Z,7.65
2023-08-28T20:58:54.880Z,7.30
2023-08-28T21:01:21.584Z,6.90
2023-08-28T21:03:48.299Z,7.20
2023-08-28T21:06:15.031Z,7.30
2023-08-28T21:08:44.937Z,6.82
2023-08-28T21:11:11.818Z,7.32
2023-08-28T21:13:38.677Z,7.00
2023-08-28T21:16:05.539Z,7.30
2023-08-28T21:18:32.401Z,7.60
2023-08-28T21:21:04.818Z,8.13
2023-08-28T21:23:31.986Z,7.40
2023-08-28T21:25:59.356Z,7.10
2023-08-28T21:28:27.614Z,7.15
2023-08-28T21:31:05.019Z,7.78
2023-08-28T21:33:32.728Z,7.03
2023-08-28T21:36:00.325Z,7.38
2023-08-28T21:38:27.432Z,7.80
2023-08-28T21:40:55.381Z,7.43
2023-08-28T21:43:22.478Z,7.13
2023-08-28T21:46:01.869Z,7.85
2023-08-28T21:48:29.014Z,7.03
2023-08-28T21:50:55.764Z,6.60
2023-08-28T21:53:22.532Z,6.30
2023-08-28T21:55:55.167Z,7.18
2023-08-28T21:58:22.012Z,6.57
2023-08-28T22:00:48.734Z,6.55
2023-08-28T22:03:15.811Z,7.00
2023-08-28T22:05:43.554Z,7.70
2023-08-28T22:08:10.729Z,6.95
2023-08-28T22:10:41.573Z,7.32
2023-08-28T22:13:08.446Z,6.60
2023-08-28T22:15:35.788Z,6.60
2023-08-28T22:18:02.933Z,7.72
2023-08-28T22:20:30.048Z,7.45
2023-08-28T22:22:56.885Z,7.20
2023-08-28T22:25:23.930Z,7.53
2023-08-28T22:27:51.726Z,7.63
2023-08-28T22:30:18.836Z,7.15
2023-08-28T22:32:45.804Z,7.78
2023-08-28T22:35:12.610Z,7.70
2023-08-28T22:37:39.362Z,7.57
2023-08-28T22:40:08.272Z,7.90
2023-08-28T22:42:35.054Z,8.80
2023-08-28T22:45:02.129Z,8.25
2023-08-28T22:47:32.155Z,8.45
2023-08-28T22:49:58.904Z,8.95
2023-08-28T22:52:25.658Z,7.93
2023-08-28T22:54:52.350Z,9.30
2023-08-28T22:57:19.046Z,9.70
2023-08-28T22:59:45.953Z,9.93
2023-08-28T23:02:12.594Z,9.30
2023-08-28T23:04:39.277Z,8.52
2023-08-28T23:07:06.208Z,9.00
2023-08-28T23:09:32.887Z,9.75
2023-08-28T23:11:59.856Z,10.10
2023-08-28T23:14:26.918Z,10.48
2023-08-28T23:16:53.678Z,10.45
2023-08-28T23:19:20.332Z,10.20
2023-08-28T23:21:47.028Z,10.90
2023-08-28T23:24:14.729Z,9.80
2023-08-28T23:26:41.676Z,10.63
2023-08-28T23:29:08.380Z,11.70
2023-08-28T23:31:35.989Z,11.48
2023-08-28T23:34:04.387Z,11.52
2023-08-28T23:36:31.209Z,10.95
2023-08-28T23:38:57.876Z,11.05
2023-08-28T23:41:24.871Z,11.23
2023-08-28T23:43:51.618Z,12.18
2023-08-28T23:46:18.390Z,12.68
2023-08-28T23:48:45.184Z,12.70
2023-08-28T23:51:11.935Z,12.07
2023-08-28T23:53:38.959Z,12.50
2023-08-28T23:56:05.622Z,12.90
2023-08-28T23:58:32.717Z,12.60
